Belogorsk, Russia
Current Conditions -  °F | °C
As of 2:00 PM on Tuesday 23 Dec 2014 (Local Time) from UHBB Reporting Station
Clear Clear  
Wind Chill: -20°   Ceiling: Unl
Heat Index: -6°   Visibility: 6mi
Dew Point: -11°   Wind: 7mph
Humidity: 77%   Direction: 20°NNE
Pressure: 30"   Gusts: NA
Location:  50.92°N, 128.47°E
Report Text: UHBB 230500Z 02003MPS CAVOK M21/M24 Q1016 NOSIG RMK QFE744/099236410250
Loading
Personal Weather Stations






























Interactive Weather Map New forecast layout! Learn more

10-Day Weather Forecast

Advertisements
Track Severe Weather on mobile